KPWK/PWK METAR and TAF weather

Enter ICAO airport designator
Station Type Date Time Source
KPWK METAR 2019/05/23 18:52 UTC NOAA

KPWK 231852Z 26011G27KT 10SM CLR 23/09 A3003 RMK AO2 PK WND 27027/1843 SLP166 T02330089


Station Type Date Time Source
KPWK Decoded METAR 2019/05/23 18:52 UTC NOAA

CHICAGO EXECUTIVE AIRPORT, IL, United States (KPWK) 42-07N 087-54W 203M
May 23, 2019 - 02:52 PM EDT / 2019.05.23 1852 UTC
Wind: from the W (260 degrees) at 13 MPH (11 KT) gusting to 31 MPH (27 KT):0
Visibility: 10 mile(s):0
Sky conditions: clear
Temperature: 73.9 F (23.3 C)
Dew Point: 48.0 F (8.9 C)
Relative Humidity: 39%
Pressure (altimeter): 30.03 in. Hg (1016 hPa)
ob: KPWK 231852Z 26011G27KT 10SM CLR 23/09 A3003 RMK AO2 PK WND 27027/1843 SLP166 T02330089
cycle: 19

Station Type Date Time Source
KPWK TAF UTC NOAA

Error!

Example: see airport list